createdAt,value
2022-08-03T00:00:41.207Z,94.90
2022-08-03T00:05:40.736Z,95.50
2022-08-03T00:10:58.900Z,95.70
2022-08-03T00:15:56.954Z,96.30
2022-08-03T00:20:56.336Z,96.60
2022-08-03T00:25:54.552Z,96.80
2022-08-03T00:30:52.691Z,97.00
2022-08-03T00:35:51.272Z,97.30
2022-08-03T00:40:50.766Z,97.10
2022-08-03T00:45:51.012Z,97.70
2022-08-03T00:50:49.224Z,97.60
2022-08-03T00:55:53.656Z,98.20
2022-08-03T01:00:52.008Z,98.30
2022-08-03T01:05:56.194Z,98.70
2022-08-03T01:11:07.650Z,98.60
2022-08-03T01:16:10.761Z,98.90
2022-08-03T01:21:13.681Z,98.60
2022-08-03T01:26:36.160Z,98.60
2022-08-03T01:32:59.700Z,98.90
2022-08-03T01:37:04.306Z,98.60
2022-08-03T01:42:06.165Z,98.60
2022-08-03T01:47:07.512Z,99.00
2022-08-03T01:52:07.374Z,98.90
2022-08-03T01:57:06.989Z,99.30
2022-08-03T02:02:19.526Z,99.10
2022-08-03T02:07:27.870Z,99.00
2022-08-03T02:12:27.758Z,99.30
2022-08-03T02:17:39.174Z,99.10
2022-08-03T02:22:41.468Z,99.00
2022-08-03T02:27:44.098Z,99.40
2022-08-03T02:32:48.970Z,99.10
2022-08-03T02:37:52.952Z,98.90
2022-08-03T02:42:54.503Z,99.50
2022-08-03T02:47:56.456Z,99.10
2022-08-03T02:52:57.370Z,99.30
2022-08-03T02:57:56.632Z,99.10
2022-08-03T03:03:04.009Z,98.70
2022-08-03T03:08:02.794Z,98.60
2022-08-03T03:13:02.469Z,98.60
2022-08-03T03:18:02.679Z,98.50
2022-08-03T03:23:01.962Z,98.60
2022-08-03T03:28:00.676Z,98.70
2022-08-03T03:33:01.222Z,99.00
2022-08-03T03:37:59.284Z,99.10
2022-08-03T03:42:57.354Z,99.30
2022-08-03T03:47:55.461Z,99.70
2022-08-03T03:52:54.927Z,99.80
2022-08-03T03:57:53.024Z,99.90
2022-08-03T04:02:51.168Z,99.90
2022-08-03T04:08:17.267Z,99.90
2022-08-03T04:13:18.468Z,99.90
2022-08-03T04:18:18.038Z,99.90
2022-08-03T04:23:19.860Z,99.90
2022-08-03T04:28:30.604Z,99.90
2022-08-03T04:33:33.096Z,99.90
2022-08-03T04:38:38.337Z,99.90
2022-08-03T04:43:39.574Z,99.90
2022-08-03T04:48:37.825Z,99.90
2022-08-03T04:53:38.091Z,99.90
2022-08-03T04:58:36.232Z,99.90
2022-08-03T05:03:34.265Z,99.90
2022-08-03T05:08:32.200Z,99.90
2022-08-03T05:13:31.604Z,99.90
2022-08-03T05:18:29.728Z,99.90
2022-08-03T05:23:27.778Z,99.90
2022-08-03T05:28:25.873Z,99.90
2022-08-03T05:33:25.264Z,99.90
2022-08-03T05:38:24.253Z,99.90
2022-08-03T05:43:27.470Z,99.70
2022-08-03T05:48:26.836Z,99.30
2022-08-03T05:53:24.894Z,98.50
2022-08-03T05:58:23.008Z,97.60
2022-08-03T06:03:21.176Z,97.90
2022-08-03T06:08:21.725Z,97.50
2022-08-03T06:13:19.695Z,96.80
2022-08-03T06:18:17.819Z,96.60
2022-08-03T06:23:17.866Z,96.70
2022-08-03T06:28:51.191Z,96.20
2022-08-03T06:34:22.869Z,94.90
2022-08-03T06:38:54.356Z,95.40
2022-08-03T06:44:03.117Z,94.90
2022-08-03T06:49:02.209Z,94.20
2022-08-03T06:54:00.357Z,93.50
2022-08-03T06:58:59.770Z,93.60
2022-08-03T07:03:57.768Z,92.70
2022-08-03T07:08:59.422Z,92.20
2022-08-03T07:13:59.071Z,91.50
2022-08-03T07:18:57.211Z,90.40
2022-08-03T07:23:55.281Z,90.50
2022-08-03T07:28:53.362Z,90.10
2022-08-03T07:33:52.931Z,88.70
2022-08-03T07:38:51.062Z,87.80
2022-08-03T07:43:49.159Z,87.20
2022-08-03T07:48:47.271Z,86.60
2022-08-03T07:53:48.043Z,85.00
2022-08-03T07:58:46.656Z,84.60
2022-08-03T08:03:53.461Z,83.00
2022-08-03T08:08:53.632Z,82.90
2022-08-03T08:13:51.621Z,81.00
2022-08-03T08:18:49.696Z,78.60
2022-08-03T08:23:57.077Z,77.80
2022-08-03T08:28:57.587Z,77.20
2022-08-03T08:34:04.336Z,74.10
2022-08-03T08:39:03.226Z,73.10
2022-08-03T08:44:02.904Z,73.40
2022-08-03T08:49:04.790Z,74.40
2022-08-03T08:54:04.256Z,73.60
2022-08-03T08:59:03.781Z,69.90
2022-08-03T09:04:01.900Z,71.00
2022-08-03T09:09:00.025Z,70.70
2022-08-03T09:13:58.032Z,68.30
2022-08-03T09:19:12.304Z,66.60
2022-08-03T09:24:25.656Z,66.40
2022-08-03T09:29:32.926Z,65.10
2022-08-03T09:34:32.483Z,62.00
2022-08-03T09:39:42.214Z,59.30
2022-08-03T09:44:42.220Z,59.30
2022-08-03T09:49:43.559Z,58.00
2022-08-03T09:54:42.907Z,56.20
2022-08-03T09:59:41.387Z,54.10
2022-08-03T10:04:50.974Z,53.30
2022-08-03T10:09:56.631Z,51.60
2022-08-03T10:14:55.857Z,50.70
2022-08-03T10:19:55.798Z,51.20
2022-08-03T10:24:57.504Z,51.60
2022-08-03T10:29:57.575Z,51.20
2022-08-03T10:35:18.972Z,49.40
2022-08-03T10:40:47.650Z,48.90
2022-08-03T10:45:43.904Z,49.20
2022-08-03T10:50:44.420Z,49.10
2022-08-03T10:56:01.644Z,48.10
2022-08-03T11:01:00.107Z,49.00
2022-08-03T11:06:17.704Z,48.60
2022-08-03T11:11:29.402Z,48.30
2022-08-03T11:16:28.881Z,48.50
2022-08-03T11:21:59.802Z,48.70
2022-08-03T11:27:19.373Z,49.20
2022-08-03T11:33:07.502Z,48.30
2022-08-03T11:38:24.711Z,48.70
2022-08-03T11:43:45.303Z,48.30
2022-08-03T11:48:45.869Z,47.90
2022-08-03T11:53:47.698Z,49.50
2022-08-03T11:59:19.156Z,49.10
2022-08-03T12:04:08.252Z,49.00
2022-08-03T12:09:17.705Z,48.10
2022-08-03T12:14:49.729Z,47.60
2022-08-03T12:19:43.262Z,47.50
2022-08-03T12:24:43.423Z,47.40
2022-08-03T12:29:41.576Z,47.60
2022-08-03T12:34:49.705Z,46.80
2022-08-03T12:40:02.808Z,47.40
2022-08-03T12:45:20.232Z,47.20
2022-08-03T12:50:26.631Z,47.60
2022-08-03T12:55:57.573Z,46.90
2022-08-03T13:00:56.575Z,46.00
2022-08-03T13:05:54.919Z,46.30
2022-08-03T13:10:54.335Z,46.20
2022-08-03T13:15:52.393Z,46.30
2022-08-03T13:20:50.406Z,46.40
2022-08-03T13:25:55.887Z,46.60
2022-08-03T13:30:55.553Z,47.50
2022-08-03T13:35:53.660Z,47.00
2022-08-03T13:40:53.296Z,47.00
2022-08-03T13:45:56.571Z,47.40
2022-08-03T13:50:57.374Z,47.30
2022-08-03T13:55:55.410Z,47.90
2022-08-03T14:00:53.386Z,48.30
2022-08-03T14:05:51.483Z,46.90
2022-08-03T14:10:51.016Z,46.40
2022-08-03T14:15:49.936Z,46.50
2022-08-03T14:20:51.921Z,46.40
2022-08-03T14:25:55.272Z,45.90
2022-08-03T14:30:54.794Z,46.00
2022-08-03T14:35:53.432Z,46.50
2022-08-03T14:40:51.941Z,46.40
2022-08-03T14:45:53.542Z,45.90
2022-08-03T14:50:52.492Z,46.50
2022-08-03T14:55:51.869Z,46.40
2022-08-03T15:00:52.689Z,46.00
2022-08-03T15:05:50.802Z,46.10
2022-08-03T15:10:49.366Z,45.80
2022-08-03T15:15:48.260Z,46.30
2022-08-03T15:20:49.409Z,46.10
2022-08-03T15:26:02.357Z,46.10
2022-08-03T15:31:07.150Z,46.10
2022-08-03T15:36:07.025Z,46.10
2022-08-03T15:41:05.066Z,45.50
2022-08-03T15:46:28.757Z,46.40
2022-08-03T15:51:26.464Z,46.40
2022-08-03T15:56:24.513Z,46.30
2022-08-03T16:01:26.180Z,46.50
2022-08-03T16:06:29.797Z,46.40
2022-08-03T16:11:35.683Z,46.70
2022-08-03T16:16:34.660Z,46.60
2022-08-03T16:21:41.112Z,47.30
2022-08-03T16:26:48.057Z,46.20
2022-08-03T16:31:51.093Z,46.20
2022-08-03T16:36:49.734Z,46.60
2022-08-03T16:41:54.000Z,46.30
2022-08-03T16:46:59.220Z,46.60
2022-08-03T16:51:57.233Z,46.30
2022-08-03T16:56:58.341Z,46.30
2022-08-03T17:01:56.432Z,46.90
2022-08-03T17:06:55.553Z,47.30
2022-08-03T17:11:53.608Z,47.00
2022-08-03T17:17:00.945Z,46.70
2022-08-03T17:22:03.942Z,46.60
2022-08-03T17:27:08.978Z,46.70
2022-08-03T17:32:10.716Z,47.30
2022-08-03T17:37:50.042Z,47.70
2022-08-03T17:42:32.988Z,48.00
2022-08-03T17:47:42.774Z,48.80
2022-08-03T17:52:48.273Z,48.90
2022-08-03T17:58:01.365Z,50.20
2022-08-03T18:03:18.115Z,50.60
2022-08-03T18:08:24.849Z,51.20
2022-08-03T18:13:25.904Z,52.50
2022-08-03T18:18:33.243Z,52.10
2022-08-03T18:28:50.737Z,53.00
2022-08-03T18:34:19.464Z,54.30
2022-08-03T18:39:11.868Z,54.20
2022-08-03T18:44:52.602Z,54.90
2022-08-03T18:49:41.527Z,56.00
2022-08-03T18:55:02.530Z,55.70
2022-08-03T19:00:12.242Z,56.50
2022-08-03T19:05:12.199Z,56.60
2022-08-03T19:10:15.909Z,57.90
2022-08-03T19:15:17.226Z,57.00
2022-08-03T19:20:36.559Z,57.10
2022-08-03T19:25:39.415Z,57.40
2022-08-03T19:30:40.652Z,58.10
2022-08-03T19:35:54.969Z,58.30
2022-08-03T19:40:58.370Z,58.80
2022-08-03T19:46:06.027Z,59.10
2022-08-03T19:51:12.100Z,59.50
2022-08-03T19:56:12.660Z,59.40
2022-08-03T20:01:21.339Z,59.80
2022-08-03T20:06:23.498Z,60.30
2022-08-03T20:11:28.630Z,60.70
2022-08-03T20:16:27.700Z,61.10
2022-08-03T20:21:31.984Z,61.30
2022-08-03T20:26:31.467Z,62.20
2022-08-03T20:31:32.434Z,62.70
2022-08-03T20:36:35.972Z,64.10
2022-08-03T20:41:36.417Z,64.40
2022-08-03T20:46:50.174Z,64.90
2022-08-03T20:51:54.214Z,65.90
2022-08-03T20:56:53.241Z,65.80
2022-08-03T21:01:51.247Z,66.90
2022-08-03T21:06:57.089Z,67.20
2022-08-03T21:11:59.436Z,68.00
2022-08-03T21:13:05.681Z,52.90
2022-08-03T21:16:59.617Z,69.30
2022-08-03T21:21:58.811Z,69.00
2022-08-03T21:26:59.538Z,69.00
2022-08-03T21:31:59.724Z,70.00
2022-08-03T21:36:58.355Z,70.10
2022-08-03T21:41:57.685Z,69.80
2022-08-03T21:46:57.402Z,71.50
2022-08-03T21:51:58.309Z,72.20
2022-08-03T21:57:04.015Z,72.30
2022-08-03T22:02:02.882Z,72.50
2022-08-03T22:07:02.945Z,73.20
2022-08-03T22:12:02.457Z,74.50
2022-08-03T22:17:03.360Z,75.50
2022-08-03T22:22:06.074Z,75.50
2022-08-03T22:27:23.764Z,75.30
2022-08-03T22:32:22.058Z,76.40
2022-08-03T22:37:22.179Z,77.50
2022-08-03T22:42:22.691Z,78.80
2022-08-03T22:47:22.676Z,78.20
2022-08-03T22:52:22.303Z,78.70
2022-08-03T22:57:23.219Z,80.00
2022-08-03T23:02:23.148Z,80.00
2022-08-03T23:07:23.179Z,80.40
2022-08-03T23:12:24.290Z,80.40
2022-08-03T23:17:24.181Z,80.60
2022-08-03T23:22:30.062Z,81.80
2022-08-03T23:27:32.213Z,82.90
2022-08-03T23:32:31.715Z,84.00
2022-08-03T23:37:30.618Z,84.80
2022-08-03T23:42:30.166Z,85.10
2022-08-03T23:47:46.032Z,85.30
2022-08-03T23:52:53.771Z,86.40
2022-08-03T23:58:04.135Z,86.60
